Aviation Digital Data Service (ADDS)

Output produced by METARs form (1635 UTC 02 July 2015)
found at http://aviationweather.gov/adds/metars/
 
KCAR 021124Z 0212/0312 22010G18KT P6SM SCT025 BKN035 
     TEMPO 0212/0214 BKN025 
     FM021400 22012G22KT P6SM BKN045 
     FM030000 24008KT P6SM BKN050